createdAt,value
2024-01-05T00:00:58.256Z,92104.00
2024-01-05T00:01:58.155Z,92104.00
2024-01-05T00:02:58.182Z,92104.00
2024-01-05T00:03:58.277Z,92103.00
2024-01-05T00:04:58.163Z,92100.00
2024-01-05T00:05:58.336Z,92099.00
2024-01-05T00:06:58.221Z,92099.00
2024-01-05T00:07:58.156Z,92099.00
2024-01-05T00:08:58.151Z,92102.00
2024-01-05T00:09:58.155Z,92100.00
2024-01-05T00:10:58.152Z,92096.00
2024-01-05T00:11:58.200Z,92093.00
2024-01-05T00:12:58.151Z,92090.00
2024-01-05T00:13:58.148Z,92087.00
2024-01-05T00:14:58.205Z,92084.00
2024-01-05T00:15:58.154Z,92080.00
2024-01-05T00:16:58.162Z,92075.00
2024-01-05T00:17:58.194Z,92072.00
2024-01-05T00:18:58.433Z,92072.00
2024-01-05T00:19:58.194Z,92072.00
2024-01-05T00:20:58.191Z,92073.00
2024-01-05T00:21:58.163Z,92072.00
2024-01-05T00:22:58.154Z,92067.00
2024-01-05T00:23:58.176Z,92062.00
2024-01-05T00:24:58.173Z,92064.00
2024-01-05T00:25:58.170Z,92061.00
2024-01-05T00:26:58.168Z,92067.00
2024-01-05T00:27:58.178Z,92067.00
2024-01-05T00:28:58.161Z,92072.00
2024-01-05T00:29:58.202Z,92069.00
2024-01-05T00:30:58.214Z,92065.00
2024-01-05T00:31:58.161Z,92059.00
2024-01-05T00:32:58.261Z,92059.00
2024-01-05T00:33:58.342Z,92058.00
2024-01-05T00:34:58.172Z,92060.00
2024-01-05T00:35:58.222Z,92057.00
2024-01-05T00:36:58.165Z,92054.00
2024-01-05T00:37:58.175Z,92050.00
2024-01-05T00:38:58.237Z,92051.00
2024-01-05T00:39:58.183Z,92053.00
2024-01-05T00:40:58.260Z,92050.00
2024-01-05T00:41:58.218Z,92053.00
2024-01-05T00:42:58.182Z,92049.00
2024-01-05T00:43:58.180Z,92052.00
2024-01-05T00:44:58.208Z,92055.00
2024-01-05T00:45:58.191Z,92051.00
2024-01-05T00:46:58.194Z,92054.00
2024-01-05T00:47:58.315Z,92061.00
2024-01-05T00:48:58.273Z,92065.00
2024-01-05T00:49:58.203Z,92068.00
2024-01-05T00:50:58.197Z,92066.00
2024-01-05T00:51:58.180Z,92058.00
2024-01-05T00:52:58.174Z,92061.00
2024-01-05T00:53:58.200Z,92058.00
2024-01-05T00:54:58.170Z,92051.00
2024-01-05T00:55:58.179Z,92048.00
2024-01-05T00:56:58.217Z,92050.00
2024-01-05T00:57:58.178Z,92053.00
2024-01-05T00:58:58.326Z,92052.00
2024-01-05T00:59:58.270Z,92051.00
2024-01-05T01:00:58.370Z,92052.00
2024-01-05T01:01:58.348Z,92051.00
2024-01-05T01:02:58.471Z,92047.00
2024-01-05T01:03:58.524Z,92045.00
2024-01-05T01:04:58.502Z,92043.00
2024-01-05T01:05:58.473Z,92043.00
2024-01-05T01:06:58.496Z,92046.00
2024-01-05T01:07:58.549Z,92044.00
2024-01-05T01:08:58.634Z,92042.00
2024-01-05T01:09:58.614Z,92041.00
2024-01-05T01:10:58.672Z,92048.00
2024-01-05T01:11:58.756Z,92050.00
2024-01-05T01:12:58.723Z,92044.00
2024-01-05T01:13:58.767Z,92036.00
2024-01-05T01:14:58.846Z,92040.00
2024-01-05T01:15:58.839Z,92040.00
2024-01-05T01:16:58.876Z,92041.00
2024-01-05T01:17:59.024Z,92032.00
2024-01-05T01:18:59.032Z,92023.00
2024-01-05T01:19:58.991Z,92027.00
2024-01-05T01:20:59.050Z,92031.00
2024-01-05T01:21:59.072Z,92033.00
2024-01-05T01:22:59.107Z,92027.00
2024-01-05T01:23:59.210Z,92030.00
2024-01-05T01:24:59.222Z,92021.00
2024-01-05T01:25:59.236Z,92021.00
2024-01-05T01:26:59.280Z,92025.00
2024-01-05T01:27:59.314Z,92026.00
2024-01-05T01:28:59.348Z,92025.00
2024-01-05T01:29:59.432Z,92020.00
2024-01-05T01:30:59.536Z,92019.00
2024-01-05T01:31:59.479Z,92023.00
2024-01-05T01:32:59.603Z,92023.00
2024-01-05T01:33:59.618Z,92024.00
2024-01-05T01:34:59.593Z,92026.00
2024-01-05T01:35:59.653Z,92023.00
2024-01-05T01:36:59.661Z,92024.00
2024-01-05T01:37:59.713Z,92024.00
2024-01-05T01:38:59.756Z,92023.00
2024-01-05T01:39:59.774Z,92014.00
2024-01-05T01:40:59.826Z,92015.00
2024-01-05T01:41:59.925Z,92012.00
2024-01-05T01:42:59.995Z,92004.00
2024-01-05T01:43:59.932Z,92009.00
2024-01-05T01:44:59.981Z,92007.00
2024-01-05T01:46:00.007Z,92011.00
2024-01-05T01:47:00.057Z,92017.00
2024-01-05T01:48:00.180Z,92018.00
2024-01-05T01:49:00.210Z,92017.00
2024-01-05T01:50:00.268Z,92021.00
2024-01-05T01:51:00.271Z,92020.00
2024-01-05T01:52:00.321Z,92021.00
2024-01-05T01:53:00.277Z,92018.00
2024-01-05T01:54:00.322Z,92019.00
2024-01-05T01:55:00.357Z,92014.00
2024-01-05T01:56:00.401Z,92015.00
2024-01-05T01:57:00.480Z,92012.00
2024-01-05T01:58:00.477Z,92008.00
2024-01-05T01:59:00.528Z,92009.00
2024-01-05T02:00:00.637Z,92004.00
2024-01-05T02:01:00.628Z,92003.00
2024-01-05T02:02:00.638Z,92000.00
2024-01-05T02:03:00.743Z,91998.00
2024-01-05T02:04:00.801Z,91997.00
2024-01-05T02:05:00.888Z,91999.00
2024-01-05T02:06:00.869Z,91989.00
2024-01-05T02:07:00.842Z,91988.00
2024-01-05T02:08:00.874Z,91993.00
2024-01-05T02:09:00.951Z,91989.00
2024-01-05T02:10:00.961Z,91989.00
2024-01-05T02:11:01.012Z,91989.00
2024-01-05T02:12:01.111Z,91985.00
2024-01-05T02:13:01.091Z,91977.00
2024-01-05T02:14:01.147Z,91975.00
2024-01-05T02:15:01.261Z,91969.00
2024-01-05T02:16:01.216Z,91969.00
2024-01-05T02:17:01.333Z,91965.00
2024-01-05T02:18:01.468Z,91963.00
2024-01-05T02:19:01.491Z,91962.00
2024-01-05T02:20:01.449Z,91956.00
2024-01-05T02:21:01.474Z,91951.00
2024-01-05T02:22:01.465Z,91947.00
2024-01-05T02:23:01.489Z,91938.00
2024-01-05T02:24:01.641Z,91934.00
2024-01-05T02:25:01.672Z,91933.00
2024-01-05T02:26:01.855Z,91925.00
2024-01-05T02:27:01.741Z,91919.00
2024-01-05T02:28:01.698Z,91917.00
2024-01-05T02:29:01.733Z,91910.00
2024-01-05T02:30:01.804Z,91905.00
2024-01-05T02:31:01.912Z,91899.00
2024-01-05T02:32:01.848Z,91894.00
2024-01-05T02:33:01.998Z,91897.00
2024-01-05T02:34:02.008Z,91896.00
2024-01-05T02:35:02.017Z,91898.00
2024-01-05T02:36:02.037Z,91898.00
2024-01-05T02:37:02.028Z,91901.00
2024-01-05T02:38:02.062Z,91900.00
2024-01-05T02:39:02.131Z,91901.00
2024-01-05T02:40:02.151Z,91903.00
2024-01-05T02:41:02.178Z,91904.00
2024-01-05T02:42:02.275Z,91908.00
2024-01-05T02:43:02.253Z,91908.00
2024-01-05T02:44:02.293Z,91908.00
2024-01-05T02:45:02.387Z,91907.00
2024-01-05T02:46:02.357Z,91909.00
2024-01-05T02:47:02.400Z,91905.00
2024-01-05T02:48:02.905Z,91900.00
2024-01-05T02:49:02.640Z,91899.00
2024-01-05T02:50:02.490Z,91894.00
2024-01-05T02:51:02.565Z,91890.00
2024-01-05T02:52:02.563Z,91886.00
2024-01-05T02:53:02.576Z,91880.00
2024-01-05T02:54:02.637Z,91876.00
2024-01-05T02:55:02.649Z,91877.00
2024-01-05T02:56:02.688Z,91879.00
2024-01-05T02:57:02.764Z,91884.00
2024-01-05T02:58:02.753Z,91885.00
2024-01-05T02:59:02.794Z,91885.00
2024-01-05T03:00:02.874Z,91882.00
2024-01-05T03:01:02.900Z,91875.00
2024-01-05T03:02:02.911Z,91871.00
2024-01-05T03:03:02.997Z,91869.00
2024-01-05T03:04:03.255Z,91866.00
2024-01-05T03:05:03.072Z,91863.00
2024-01-05T03:06:03.104Z,91865.00
2024-01-05T03:07:03.117Z,91865.00
2024-01-05T03:08:03.165Z,91864.00
2024-01-05T03:09:03.242Z,91870.00
2024-01-05T03:10:03.236Z,91877.00
2024-01-05T03:11:03.282Z,91877.00
2024-01-05T03:12:03.325Z,91879.00
2024-01-05T03:13:03.362Z,91879.00
2024-01-05T03:14:03.386Z,91872.00
2024-01-05T03:15:03.483Z,91878.00
2024-01-05T03:16:03.463Z,91868.00
2024-01-05T03:17:03.508Z,91867.00
2024-01-05T03:18:03.682Z,91868.00
2024-01-05T03:19:03.769Z,91860.00
2024-01-05T03:20:03.764Z,91867.00
2024-01-05T03:21:03.691Z,91868.00
2024-01-05T03:22:03.693Z,91872.00
2024-01-05T03:23:03.747Z,91871.00
2024-01-05T03:24:03.813Z,91864.00
2024-01-05T03:25:03.818Z,91858.00
2024-01-05T03:26:03.875Z,91853.00
2024-01-05T03:27:03.947Z,91846.00
2024-01-05T03:28:03.931Z,91847.00
2024-01-05T03:29:03.968Z,91850.00
2024-01-05T03:30:04.108Z,91845.00
2024-01-05T03:31:04.252Z,91839.00
2024-01-05T03:32:04.097Z,91833.00
2024-01-05T03:33:04.232Z,91833.00
2024-01-05T03:34:04.359Z,91829.00
2024-01-05T03:35:04.272Z,91829.00
2024-01-05T03:36:04.302Z,91828.00
2024-01-05T03:37:04.329Z,91829.00
2024-01-05T03:38:04.343Z,91823.00
2024-01-05T03:39:04.415Z,91822.00
2024-01-05T03:40:04.421Z,91821.00
2024-01-05T03:41:04.468Z,91821.00
2024-01-05T03:42:04.565Z,91819.00
2024-01-05T03:43:04.557Z,91813.00
2024-01-05T03:44:04.582Z,91811.00
2024-01-05T03:45:04.696Z,91805.00
2024-01-05T03:46:04.676Z,91801.00
2024-01-05T03:47:04.721Z,91797.00
2024-01-05T03:48:04.880Z,91791.00
2024-01-05T03:49:04.898Z,91791.00
2024-01-05T03:50:04.901Z,91788.00
2024-01-05T03:51:04.938Z,91789.00
2024-01-05T03:52:04.918Z,91787.00
2024-01-05T03:53:04.963Z,91783.00
2024-01-05T03:54:05.020Z,91780.00
2024-01-05T03:55:05.041Z,91780.00
2024-01-05T03:56:05.084Z,91783.00
2024-01-05T03:57:05.162Z,91784.00
2024-01-05T03:58:05.177Z,91782.00
2024-01-05T03:59:05.224Z,91779.00
2024-01-05T04:00:05.302Z,91774.00
2024-01-05T04:01:05.325Z,91774.00
2024-01-05T04:02:05.355Z,91773.00
2024-01-05T04:03:05.610Z,91775.00
2024-01-05T04:04:05.461Z,91779.00
2024-01-05T04:05:05.540Z,91782.00
2024-01-05T04:06:05.573Z,91784.00
2024-01-05T04:07:05.556Z,91785.00
2024-01-05T04:08:05.600Z,91787.00
2024-01-05T04:09:05.694Z,91793.00
2024-01-05T04:10:05.695Z,91794.00
2024-01-05T04:11:05.737Z,91793.00
2024-01-05T04:12:05.814Z,91786.00
2024-01-05T04:13:05.822Z,91779.00
2024-01-05T04:14:05.864Z,91778.00
2024-01-05T04:15:05.948Z,91781.00
2024-01-05T04:16:05.963Z,91782.00
2024-01-05T04:17:06.004Z,91785.00
2024-01-05T04:18:06.235Z,91788.00
2024-01-05T04:19:06.166Z,91793.00
2024-01-05T04:20:06.144Z,91798.00
2024-01-05T04:21:06.195Z,91803.00
2024-01-05T04:22:06.227Z,91800.00
2024-01-05T04:23:06.262Z,91797.00
2024-01-05T04:24:06.368Z,91794.00
2024-01-05T04:25:06.357Z,91791.00
2024-01-05T04:26:06.398Z,91792.00
2024-01-05T04:27:06.460Z,91792.00
2024-01-05T04:28:06.483Z,91795.00
2024-01-05T04:29:06.524Z,91796.00
2024-01-05T04:30:06.647Z,91795.00
2024-01-05T04:31:06.673Z,91793.00
2024-01-05T04:32:06.647Z,91791.00
2024-01-05T04:33:06.894Z,91788.00
2024-01-05T04:34:06.923Z,91788.00
2024-01-05T04:35:06.756Z,91785.00
2024-01-05T04:36:06.890Z,91784.00
2024-01-05T04:37:06.880Z,91784.00
2024-01-05T04:38:06.876Z,91784.00
2024-01-05T04:39:06.934Z,91780.00
2024-01-05T04:40:06.959Z,91779.00
2024-01-05T04:41:07.003Z,91777.00
2024-01-05T04:42:07.064Z,91772.00
2024-01-05T04:43:07.073Z,91771.00
2024-01-05T04:44:07.133Z,91772.00
2024-01-05T04:45:07.216Z,91772.00
2024-01-05T04:46:07.196Z,91773.00
2024-01-05T04:47:07.244Z,91771.00
2024-01-05T04:48:07.538Z,91768.00
2024-01-05T04:49:07.422Z,91772.00
2024-01-05T04:50:07.368Z,91778.00
2024-01-05T04:51:07.499Z,91778.00
2024-01-05T04:52:07.452Z,91776.00
2024-01-05T04:53:07.494Z,91776.00
2024-01-05T04:54:07.569Z,91772.00
2024-01-05T04:55:07.586Z,91771.00
2024-01-05T04:56:07.623Z,91764.00
2024-01-05T04:57:07.682Z,91762.00
2024-01-05T04:58:07.695Z,91762.00
2024-01-05T04:59:07.756Z,91765.00
2024-01-05T05:00:07.796Z,91766.00
2024-01-05T05:01:07.872Z,91768.00
2024-01-05T05:02:07.875Z,91765.00
2024-01-05T05:03:07.956Z,91763.00
2024-01-05T05:04:08.016Z,91762.00
2024-01-05T05:05:08.050Z,91757.00
2024-01-05T05:06:15.426Z,91754.00
2024-01-05T05:07:15.417Z,91756.00
2024-01-05T05:08:15.426Z,91759.00
2024-01-05T05:09:15.537Z,91758.00
2024-01-05T05:10:15.450Z,91760.00
2024-01-05T05:11:15.459Z,91765.00
2024-01-05T05:12:15.512Z,91764.00
2024-01-05T05:13:15.490Z,91764.00
2024-01-05T05:14:15.499Z,91765.00
2024-01-05T05:15:15.541Z,91764.00
2024-01-05T05:16:15.528Z,91763.00
2024-01-05T05:17:15.558Z,91759.00
2024-01-05T05:18:15.708Z,91755.00
2024-01-05T05:19:15.697Z,91755.00
2024-01-05T05:20:15.560Z,91756.00
2024-01-05T05:21:15.623Z,91758.00
2024-01-05T05:22:15.661Z,91760.00
2024-01-05T05:23:15.636Z,91763.00
2024-01-05T05:24:15.621Z,91761.00
2024-01-05T05:25:15.707Z,91761.00
2024-01-05T05:26:15.647Z,91762.00
2024-01-05T05:27:15.676Z,91761.00
2024-01-05T05:28:15.655Z,91756.00
2024-01-05T05:29:15.649Z,91751.00
2024-01-05T05:30:15.756Z,91747.00
2024-01-05T05:31:15.859Z,91749.00
2024-01-05T05:32:15.701Z,91753.00
2024-01-05T05:33:15.777Z,91755.00
2024-01-05T05:34:15.789Z,91757.00
2024-01-05T05:35:15.733Z,91759.00
2024-01-05T05:36:15.790Z,91755.00
2024-01-05T05:37:15.751Z,91753.00
2024-01-05T05:38:15.790Z,91747.00
2024-01-05T05:39:15.794Z,91747.00
2024-01-05T05:40:15.757Z,91743.00
2024-01-05T05:41:15.766Z,91744.00
2024-01-05T05:42:15.800Z,91742.00
2024-01-05T05:43:15.780Z,91742.00
2024-01-05T05:44:15.779Z,91743.00
2024-01-05T05:45:15.820Z,91744.00
2024-01-05T05:46:15.805Z,91747.00
2024-01-05T05:47:15.823Z,91750.00
2024-01-05T05:48:16.001Z,91750.00
2024-01-05T05:49:15.892Z,91751.00
2024-01-05T05:50:15.904Z,91751.00
2024-01-05T05:51:15.884Z,91754.00
2024-01-05T05:52:15.876Z,91752.00
2024-01-05T05:53:15.889Z,91749.00
2024-01-05T05:54:15.929Z,91751.00
2024-01-05T05:55:15.963Z,91749.00
2024-01-05T05:56:16.051Z,91750.00
2024-01-05T05:57:16.085Z,91750.00
2024-01-05T05:58:16.089Z,91751.00
2024-01-05T05:59:16.126Z,91751.00
2024-01-05T06:00:16.185Z,91754.00
2024-01-05T06:01:16.255Z,91752.00
2024-01-05T06:02:16.259Z,91752.00
2024-01-05T06:03:16.356Z,91754.00
2024-01-05T06:04:16.399Z,91756.00
2024-01-05T06:05:16.347Z,91758.00
2024-01-05T06:06:16.520Z,91762.00
2024-01-05T06:07:16.433Z,91766.00
2024-01-05T06:08:16.479Z,91767.00
2024-01-05T06:09:16.613Z,91768.00
2024-01-05T06:10:16.583Z,91770.00
2024-01-05T06:11:16.617Z,91767.00
2024-01-05T06:12:16.636Z,91766.00
2024-01-05T06:13:16.663Z,91764.00
2024-01-05T06:14:16.707Z,91763.00
2024-01-05T06:15:16.808Z,91762.00
2024-01-05T06:16:16.821Z,91765.00
2024-01-05T06:17:16.819Z,91764.00
2024-01-05T06:18:17.024Z,91767.00
2024-01-05T06:19:16.994Z,91768.00
2024-01-05T06:20:16.940Z,91770.00
2024-01-05T06:21:16.989Z,91772.00
2024-01-05T06:22:17.022Z,91769.00
2024-01-05T06:23:17.334Z,91768.00
2024-01-05T06:24:17.128Z,91770.00
2024-01-05T06:25:17.119Z,91767.00
2024-01-05T06:26:17.150Z,91765.00
2024-01-05T06:27:22.306Z,91764.00
2024-01-05T06:28:18.198Z,91762.00
2024-01-05T06:29:17.212Z,91763.00
2024-01-05T06:30:17.275Z,91765.00
2024-01-05T06:31:17.340Z,91763.00
2024-01-05T06:32:17.220Z,91763.00
2024-01-05T06:33:17.284Z,91765.00
2024-01-05T06:34:17.342Z,91766.00
2024-01-05T06:35:17.272Z,91766.00
2024-01-05T06:36:17.289Z,91766.00
2024-01-05T06:37:17.272Z,91764.00
2024-01-05T06:38:17.267Z,91765.00
2024-01-05T06:39:17.375Z,91762.00
2024-01-05T06:40:17.283Z,91763.00
2024-01-05T06:41:17.294Z,91764.00
2024-01-05T06:42:17.351Z,91764.00
2024-01-05T06:43:17.315Z,91764.00
2024-01-05T06:44:17.311Z,91762.00
2024-01-05T06:45:17.367Z,91762.00
2024-01-05T06:46:17.344Z,91765.00
2024-01-05T06:47:17.376Z,91764.00
2024-01-05T06:48:17.564Z,91762.00
2024-01-05T06:49:17.616Z,91759.00
2024-01-05T06:50:17.559Z,91756.00
2024-01-05T06:51:17.583Z,91756.00
2024-01-05T06:52:17.540Z,91757.00
2024-01-05T06:53:17.568Z,91756.00
2024-01-05T06:54:17.630Z,91758.00
2024-01-05T06:55:17.648Z,91756.00
2024-01-05T06:56:17.672Z,91756.00
2024-01-05T06:57:17.777Z,91761.00
2024-01-05T06:58:17.738Z,91765.00
2024-01-05T06:59:17.776Z,91765.00
2024-01-05T07:00:17.876Z,91762.00
2024-01-05T07:01:17.884Z,91760.00
2024-01-05T07:02:17.881Z,91762.00
2024-01-05T07:03:17.975Z,91761.00
2024-01-05T07:04:17.955Z,91760.00
2024-01-05T07:05:18.052Z,91758.00
2024-01-05T07:06:18.080Z,91756.00
2024-01-05T07:07:18.074Z,91759.00
2024-01-05T07:08:18.122Z,91757.00
2024-01-05T07:09:18.183Z,91759.00
2024-01-05T07:10:18.186Z,91758.00
2024-01-05T07:11:18.223Z,91759.00
2024-01-05T07:12:18.275Z,91759.00
2024-01-05T07:13:18.295Z,91762.00
2024-01-05T07:14:18.340Z,91763.00
2024-01-05T07:15:18.410Z,91766.00
2024-01-05T07:16:18.408Z,91766.00
2024-01-05T07:17:18.451Z,91766.00
2024-01-05T07:18:18.570Z,91765.00
2024-01-05T07:19:18.621Z,91764.00
2024-01-05T07:20:18.553Z,91764.00
2024-01-05T07:21:18.704Z,91762.00
2024-01-05T07:22:18.622Z,91758.00
2024-01-05T07:23:18.682Z,91757.00
2024-01-05T07:24:18.717Z,91757.00
2024-01-05T07:25:18.733Z,91754.00
2024-01-05T07:26:18.765Z,91755.00
2024-01-05T07:27:18.934Z,91757.00
2024-01-05T07:28:18.835Z,91756.00
2024-01-05T07:29:18.881Z,91757.00
2024-01-05T07:30:19.011Z,91760.00
2024-01-05T07:31:19.017Z,91764.00
2024-01-05T07:32:18.973Z,91766.00
2024-01-05T07:33:19.322Z,91766.00
2024-01-05T07:34:19.138Z,91763.00
2024-01-05T07:35:19.074Z,91760.00
2024-01-05T07:36:19.214Z,91759.00
2024-01-05T07:37:19.160Z,91758.00
2024-01-05T07:38:19.166Z,91759.00
2024-01-05T07:39:19.261Z,91761.00
2024-01-05T07:40:19.244Z,91763.00
2024-01-05T07:41:19.288Z,91762.00
2024-01-05T07:42:19.350Z,91761.00
2024-01-05T07:43:19.343Z,91757.00
2024-01-05T07:44:19.384Z,91754.00
2024-01-05T07:45:19.484Z,91753.00
2024-01-05T07:46:19.430Z,91752.00
2024-01-05T07:47:19.521Z,91751.00
2024-01-05T07:48:19.582Z,91749.00
2024-01-05T07:49:19.697Z,91750.00
2024-01-05T07:50:19.561Z,91752.00
2024-01-05T07:51:19.649Z,91751.00
2024-01-05T07:52:19.617Z,91749.00
2024-01-05T07:53:19.654Z,91749.00
2024-01-05T07:54:19.700Z,91750.00
2024-01-05T07:55:19.724Z,91750.00
2024-01-05T07:56:19.752Z,91748.00
2024-01-05T07:57:19.893Z,91744.00
2024-01-05T07:58:19.842Z,91742.00
2024-01-05T07:59:19.836Z,91737.00
2024-01-05T08:00:19.960Z,91739.00
2024-01-05T08:01:19.919Z,91739.00
2024-01-05T08:02:19.928Z,91740.00
2024-01-05T08:03:20.025Z,91740.00
2024-01-05T08:04:20.054Z,91738.00
2024-01-05T08:05:20.055Z,91737.00
2024-01-05T08:06:20.222Z,91736.00
2024-01-05T08:07:20.076Z,91736.00
2024-01-05T08:08:20.150Z,91735.00
2024-01-05T08:09:20.165Z,91734.00
2024-01-05T08:10:20.158Z,91733.00
2024-01-05T08:11:20.186Z,91731.00
2024-01-05T08:12:20.248Z,91728.00
2024-01-05T08:13:20.251Z,91723.00
2024-01-05T08:14:20.266Z,91724.00
2024-01-05T08:15:20.320Z,91721.00
2024-01-05T08:16:20.354Z,91720.00
2024-01-05T08:17:20.361Z,91720.00
2024-01-05T08:18:20.496Z,91720.00
2024-01-05T08:19:20.469Z,91718.00
2024-01-05T08:20:20.460Z,91718.00
2024-01-05T08:21:20.538Z,91719.00
2024-01-05T08:22:20.533Z,91723.00
2024-01-05T08:23:20.547Z,91726.00
2024-01-05T08:24:20.634Z,91724.00
2024-01-05T08:25:22.108Z,91723.00
2024-01-05T08:26:20.652Z,91724.00
2024-01-05T08:27:20.700Z,91722.00
2024-01-05T08:28:20.676Z,91719.00
2024-01-05T08:29:20.681Z,91717.00
2024-01-05T08:30:20.825Z,91717.00
2024-01-05T08:31:20.825Z,91713.00
2024-01-05T08:32:20.736Z,91712.00
2024-01-05T08:33:20.818Z,91712.00
2024-01-05T08:34:20.877Z,91711.00
2024-01-05T08:35:20.809Z,91709.00
2024-01-05T08:36:21.591Z,91707.00
2024-01-05T08:37:20.802Z,91709.00
2024-01-05T08:38:20.815Z,91710.00
2024-01-05T08:39:21.602Z,91707.00
2024-01-05T08:40:20.848Z,91710.00
2024-01-05T08:41:20.852Z,91709.00
2024-01-05T08:42:20.874Z,91709.00
2024-01-05T08:43:20.922Z,91712.00
2024-01-05T08:44:20.894Z,91713.00
2024-01-05T08:45:20.953Z,91713.00
2024-01-05T08:46:20.925Z,91714.00
2024-01-05T08:47:20.951Z,91713.00
2024-01-05T08:48:21.051Z,91713.00
2024-01-05T08:49:21.100Z,91711.00
2024-01-05T08:50:21.024Z,91709.00
2024-01-05T08:51:21.167Z,91708.00
2024-01-05T08:52:21.016Z,91706.00
2024-01-05T08:53:21.033Z,91706.00
2024-01-05T08:54:21.081Z,91704.00
2024-01-05T08:55:21.084Z,91706.00
2024-01-05T08:56:21.096Z,91704.00
2024-01-05T08:57:21.180Z,91706.00
2024-01-05T08:58:21.134Z,91709.00
2024-01-05T08:59:21.141Z,91709.00
2024-01-05T09:00:21.176Z,91707.00
2024-01-05T09:01:21.934Z,91704.00
2024-01-05T09:02:21.191Z,91702.00
2024-01-05T09:03:21.246Z,91700.00
2024-01-05T09:04:21.233Z,91697.00
2024-01-05T09:05:21.243Z,91698.00
2024-01-05T09:06:21.247Z,91698.00
2024-01-05T09:07:21.232Z,91701.00
2024-01-05T09:08:21.240Z,91701.00
2024-01-05T09:09:21.271Z,91701.00
2024-01-05T09:10:21.276Z,91702.00
2024-01-05T09:11:21.300Z,91702.00
2024-01-05T09:12:21.366Z,91703.00
2024-01-05T09:13:21.317Z,91704.00
2024-01-05T09:14:21.338Z,91705.00
2024-01-05T09:15:21.355Z,91703.00
2024-01-05T09:16:21.369Z,91705.00
2024-01-05T09:17:21.383Z,91701.00
2024-01-05T09:18:21.571Z,91701.00
2024-01-05T09:19:23.684Z,91700.00
2024-01-05T09:20:21.400Z,91701.00
2024-01-05T09:21:21.499Z,91700.00
2024-01-05T09:22:21.427Z,91701.00
2024-01-05T09:23:21.447Z,91702.00
2024-01-05T09:24:21.520Z,91705.00
2024-01-05T09:25:21.467Z,91707.00
2024-01-05T09:26:21.482Z,91711.00
2024-01-05T09:27:21.524Z,91712.00
2024-01-05T09:28:21.508Z,91712.00
2024-01-05T09:29:21.518Z,91711.00
2024-01-05T09:30:21.624Z,91711.00
2024-01-05T09:31:21.746Z,91712.00
2024-01-05T09:32:21.590Z,91714.00
2024-01-05T09:33:21.732Z,91712.00
2024-01-05T09:34:21.701Z,91711.00
2024-01-05T09:35:21.580Z,91709.00
2024-01-05T09:36:21.622Z,91709.00
2024-01-05T09:37:21.597Z,91709.00
2024-01-05T09:38:21.614Z,91710.00
2024-01-05T09:39:21.677Z,91710.00
2024-01-05T09:40:21.659Z,91712.00
2024-01-05T09:41:21.657Z,91714.00
2024-01-05T09:42:21.716Z,91717.00
2024-01-05T09:43:21.680Z,91717.00
2024-01-05T09:44:21.705Z,91715.00
2024-01-05T09:45:21.718Z,91711.00
2024-01-05T09:46:21.740Z,91708.00
2024-01-05T09:47:21.748Z,91704.00
2024-01-05T09:48:23.622Z,91707.00
2024-01-05T09:49:22.882Z,91706.00
2024-01-05T09:50:21.836Z,91708.00
2024-01-05T09:51:21.839Z,91706.00
2024-01-05T09:52:21.790Z,91704.00
2024-01-05T09:53:21.826Z,91700.00
2024-01-05T09:54:21.877Z,91697.00
2024-01-05T09:55:21.841Z,91695.00
2024-01-05T09:56:21.854Z,91692.00
2024-01-05T09:57:21.963Z,91691.00
2024-01-05T09:58:21.891Z,91691.00
2024-01-05T09:59:21.898Z,91691.00
2024-01-05T10:00:22.036Z,91689.00
2024-01-05T10:01:21.991Z,91688.00
2024-01-05T10:02:21.950Z,91688.00
2024-01-05T10:03:22.044Z,91688.00
2024-01-05T10:04:22.041Z,91689.00
2024-01-05T10:05:22.066Z,91689.00
2024-01-05T10:06:22.104Z,91687.00
2024-01-05T10:07:22.035Z,91682.00
2024-01-05T10:08:22.056Z,91676.00
2024-01-05T10:09:22.084Z,91669.00
2024-01-05T10:10:22.096Z,91664.00
2024-01-05T10:11:22.125Z,91661.00
2024-01-05T10:12:22.232Z,91655.00
2024-01-05T10:13:22.168Z,91653.00
2024-01-05T10:14:22.175Z,91651.00
2024-01-05T10:15:22.224Z,91651.00
2024-01-05T10:16:22.225Z,91653.00
2024-01-05T10:17:22.243Z,91651.00
2024-01-05T10:18:25.582Z,91647.00
2024-01-05T10:19:22.372Z,91647.00
2024-01-05T10:20:22.301Z,91647.00
2024-01-05T10:21:22.401Z,91646.00
2024-01-05T10:22:22.368Z,91643.00
2024-01-05T10:23:22.364Z,91640.00
2024-01-05T10:24:24.232Z,91635.00
2024-01-05T10:25:22.409Z,91638.00
2024-01-05T10:26:22.469Z,91637.00
2024-01-05T10:27:22.550Z,91639.00
2024-01-05T10:28:22.559Z,91638.00
2024-01-05T10:29:22.524Z,91636.00
2024-01-05T10:30:22.675Z,91636.00
2024-01-05T10:31:22.744Z,91634.00
2024-01-05T10:32:22.614Z,91633.00
2024-01-05T10:33:22.772Z,91631.00
2024-01-05T10:34:22.735Z,91631.00
2024-01-05T10:35:22.691Z,91633.00
2024-01-05T10:36:22.783Z,91632.00
2024-01-05T10:37:22.778Z,91635.00
2024-01-05T10:38:22.796Z,91635.00
2024-01-05T10:39:22.867Z,91638.00
2024-01-05T10:40:23.545Z,91638.00
2024-01-05T10:41:22.913Z,91637.00
2024-01-05T10:42:23.421Z,91635.00
2024-01-05T10:43:23.619Z,91637.00
2024-01-05T10:44:22.955Z,91632.00
2024-01-05T10:45:23.039Z,91630.00
2024-01-05T10:46:23.003Z,91628.00
2024-01-05T10:47:23.095Z,91625.00
2024-01-05T10:48:23.200Z,91623.00
2024-01-05T10:49:23.183Z,91620.00
2024-01-05T10:50:23.095Z,91615.00
2024-01-05T10:51:23.199Z,91612.00
2024-01-05T10:52:23.134Z,91611.00
2024-01-05T10:53:23.166Z,91612.00
2024-01-05T10:54:23.246Z,91609.00
2024-01-05T10:55:23.207Z,91607.00
2024-01-05T10:56:23.223Z,91601.00
2024-01-05T10:57:23.288Z,91597.00
2024-01-05T10:58:23.272Z,91591.00
2024-01-05T10:59:23.306Z,91589.00
2024-01-05T11:00:23.349Z,91585.00
2024-01-05T11:01:23.436Z,91583.00
2024-01-05T11:02:23.755Z,91581.00
2024-01-05T11:03:23.457Z,91580.00
2024-01-05T11:04:23.482Z,91580.00
2024-01-05T11:05:23.564Z,91576.00
2024-01-05T11:06:23.582Z,91575.00
2024-01-05T11:07:23.582Z,91575.00
2024-01-05T11:08:23.567Z,91570.00
2024-01-05T11:09:23.623Z,91566.00
2024-01-05T11:10:23.668Z,91563.00
2024-01-05T11:11:23.655Z,91560.00
2024-01-05T11:12:23.697Z,91555.00
2024-01-05T11:13:23.707Z,91553.00
2024-01-05T11:14:23.781Z,91550.00
2024-01-05T11:15:23.909Z,91548.00
2024-01-05T11:16:23.787Z,91546.00
2024-01-05T11:17:23.914Z,91540.00
2024-01-05T11:18:24.044Z,91538.00
2024-01-05T11:19:24.093Z,91535.00
2024-01-05T11:20:24.094Z,91536.00
2024-01-05T11:21:24.240Z,91532.00
2024-01-05T11:22:24.290Z,91528.00
2024-01-05T11:23:24.346Z,91529.00
2024-01-05T11:24:24.431Z,91527.00
2024-01-05T11:25:24.511Z,91522.00
2024-01-05T11:26:24.585Z,91519.00
2024-01-05T11:27:24.669Z,91515.00
2024-01-05T11:28:24.782Z,91514.00
2024-01-05T11:29:24.801Z,91513.00
2024-01-05T11:30:24.954Z,91513.00
2024-01-05T11:31:25.016Z,91515.00
2024-01-05T11:32:25.156Z,91513.00
2024-01-05T11:33:30.026Z,91513.00
2024-01-05T11:34:26.308Z,91512.00
2024-01-05T11:35:25.159Z,91510.00
2024-01-05T11:36:25.197Z,91510.00
2024-01-05T11:37:25.166Z,91510.00
2024-01-05T11:38:25.190Z,91508.00
2024-01-05T11:39:25.239Z,91506.00
2024-01-05T11:40:25.199Z,91504.00
2024-01-05T11:41:25.205Z,91501.00
2024-01-05T11:42:25.340Z,91502.00
2024-01-05T11:43:25.364Z,91498.00
2024-01-05T11:44:25.445Z,91498.00
2024-01-05T11:45:25.558Z,91496.00